sensor_id;sensor_type;location;lat;lon;timestamp;temperature;humidity
19281;DHT22;9774;52.034;5.342;2024-02-15T00:00:18;16.40;73.30
19281;DHT22;9774;52.034;5.342;2024-02-15T00:02:45;16.40;73.30
19281;DHT22;9774;52.034;5.342;2024-02-15T00:05:13;16.40;73.30
19281;DHT22;9774;52.034;5.342;2024-02-15T00:07:41;16.40;73.40
19281;DHT22;9774;52.034;5.342;2024-02-15T00:10:09;16.40;73.30
19281;DHT22;9774;52.034;5.342;2024-02-15T00:12:38;16.40;73.30
19281;DHT22;9774;52.034;5.342;2024-02-15T00:15:06;16.40;73.30
19281;DHT22;9774;52.034;5.342;2024-02-15T00:17:34;16.40;73.30
19281;DHT22;9774;52.034;5.342;2024-02-15T00:20:02;16.40;73.30
19281;DHT22;9774;52.034;5.342;2024-02-15T00:22:35;16.50;73.30
19281;DHT22;9774;52.034;5.342;2024-02-15T00:25:02;16.50;73.30
19281;DHT22;9774;52.034;5.342;2024-02-15T00:27:30;16.40;73.30
19281;DHT22;9774;52.034;5.342;2024-02-15T00:29:59;16.40;73.30
19281;DHT22;9774;52.034;5.342;2024-02-15T00:32:26;16.40;73.30
19281;DHT22;9774;52.034;5.342;2024-02-15T00:34:54;16.40;73.20
19281;DHT22;9774;52.034;5.342;2024-02-15T00:37:21;16.40;73.20
19281;DHT22;9774;52.034;5.342;2024-02-15T00:39:48;16.50;73.30
19281;DHT22;9774;52.034;5.342;2024-02-15T00:42:15;16.50;73.30
19281;DHT22;9774;52.034;5.342;2024-02-15T00:44:42;16.50;73.30
19281;DHT22;9774;52.034;5.342;2024-02-15T00:47:10;16.50;73.30
19281;DHT22;9774;52.034;5.342;2024-02-15T00:49:38;16.50;73.30
19281;DHT22;9774;52.034;5.342;2024-02-15T00:52:06;16.50;73.30
19281;DHT22;9774;52.034;5.342;2024-02-15T00:54:33;16.50;73.20
19281;DHT22;9774;52.034;5.342;2024-02-15T00:57:00;16.40;73.20
19281;DHT22;9774;52.034;5.342;2024-02-15T00:59:27;16.50;73.20
19281;DHT22;9774;52.034;5.342;2024-02-15T01:01:54;16.40;73.20
19281;DHT22;9774;52.034;5.342;2024-02-15T01:04:22;16.40;73.20
19281;DHT22;9774;52.034;5.342;2024-02-15T01:06:49;16.40;73.20
19281;DHT22;9774;52.034;5.342;2024-02-15T01:09:17;16.50;73.20
19281;DHT22;9774;52.034;5.342;2024-02-15T01:11:44;16.40;73.20
19281;DHT22;9774;52.034;5.342;2024-02-15T01:14:11;16.50;73.20
19281;DHT22;9774;52.034;5.342;2024-02-15T01:16:39;16.50;73.30
19281;DHT22;9774;52.034;5.342;2024-02-15T01:19:06;16.50;73.20
19281;DHT22;9774;52.034;5.342;2024-02-15T01:21:34;16.50;73.20
19281;DHT22;9774;52.034;5.342;2024-02-15T01:24:02;16.50;73.90
19281;DHT22;9774;52.034;5.342;2024-02-15T01:26:32;16.50;73.20
19281;DHT22;9774;52.034;5.342;2024-02-15T01:29:00;16.50;73.10
19281;DHT22;9774;52.034;5.342;2024-02-15T01:31:28;16.50;73.10
19281;DHT22;9774;52.034;5.342;2024-02-15T01:33:55;16.50;73.20
19281;DHT22;9774;52.034;5.342;2024-02-15T01:36:22;16.40;73.20
19281;DHT22;9774;52.034;5.342;2024-02-15T01:38:51;16.40;73.20
19281;DHT22;9774;52.034;5.342;2024-02-15T01:41:18;16.40;73.20
19281;DHT22;9774;52.034;5.342;2024-02-15T01:43:46;16.40;73.20
19281;DHT22;9774;52.034;5.342;2024-02-15T01:46:14;16.40;73.20
19281;DHT22;9774;52.034;5.342;2024-02-15T01:48:42;16.40;73.20
19281;DHT22;9774;52.034;5.342;2024-02-15T01:51:11;16.40;73.20
19281;DHT22;9774;52.034;5.342;2024-02-15T01:53:43;16.40;73.20
19281;DHT22;9774;52.034;5.342;2024-02-15T01:56:13;16.40;73.20
19281;DHT22;9774;52.034;5.342;2024-02-15T01:58:43;16.40;73.20
19281;DHT22;9774;52.034;5.342;2024-02-15T02:01:12;16.50;73.30
19281;DHT22;9774;52.034;5.342;2024-02-15T02:03:41;16.40;73.20
19281;DHT22;9774;52.034;5.342;2024-02-15T02:06:09;16.50;73.30
19281;DHT22;9774;52.034;5.342;2024-02-15T02:08:36;16.50;73.30
19281;DHT22;9774;52.034;5.342;2024-02-15T02:11:03;16.40;73.20
19281;DHT22;9774;52.034;5.342;2024-02-15T02:13:32;16.40;73.20
19281;DHT22;9774;52.034;5.342;2024-02-15T02:15:59;16.40;73.20
19281;DHT22;9774;52.034;5.342;2024-02-15T02:18:26;16.50;73.30
19281;DHT22;9774;52.034;5.342;2024-02-15T02:20:53;16.40;73.20
19281;DHT22;9774;52.034;5.342;2024-02-15T02:23:21;16.40;73.20
19281;DHT22;9774;52.034;5.342;2024-02-15T02:25:54;16.40;73.20
19281;DHT22;9774;52.034;5.342;2024-02-15T02:28:22;16.40;73.20
19281;DHT22;9774;52.034;5.342;2024-02-15T02:30:49;16.40;73.10
19281;DHT22;9774;52.034;5.342;2024-02-15T02:33:16;16.40;73.10
19281;DHT22;9774;52.034;5.342;2024-02-15T02:35:44;16.40;73.10
19281;DHT22;9774;52.034;5.342;2024-02-15T02:38:14;16.40;73.00
19281;DHT22;9774;52.034;5.342;2024-02-15T02:40:41;16.40;72.90
19281;DHT22;9774;52.034;5.342;2024-02-15T02:43:10;16.40;72.90
19281;DHT22;9774;52.034;5.342;2024-02-15T02:45:37;16.40;72.90
19281;DHT22;9774;52.034;5.342;2024-02-15T02:48:04;16.30;72.80
19281;DHT22;9774;52.034;5.342;2024-02-15T02:50:32;16.30;72.80
19281;DHT22;9774;52.034;5.342;2024-02-15T02:53:00;16.30;72.80
19281;DHT22;9774;52.034;5.342;2024-02-15T02:55:27;16.30;72.90
19281;DHT22;9774;52.034;5.342;2024-02-15T02:57:54;16.20;72.90
19281;DHT22;9774;52.034;5.342;2024-02-15T03:00:23;16.20;72.90
19281;DHT22;9774;52.034;5.342;2024-02-15T03:02:50;16.20;72.90
19281;DHT22;9774;52.034;5.342;2024-02-15T03:05:17;16.20;72.90
19281;DHT22;9774;52.034;5.342;2024-02-15T03:07:46;16.20;73.00
19281;DHT22;9774;52.034;5.342;2024-02-15T03:10:15;16.20;73.00
19281;DHT22;9774;52.034;5.342;2024-02-15T03:12:42;16.20;73.10
19281;DHT22;9774;52.034;5.342;2024-02-15T03:15:13;16.20;73.10
19281;DHT22;9774;52.034;5.342;2024-02-15T03:17:43;16.20;73.10
19281;DHT22;9774;52.034;5.342;2024-02-15T03:20:12;16.20;73.10
19281;DHT22;9774;52.034;5.342;2024-02-15T03:22:51;16.20;73.10
19281;DHT22;9774;52.034;5.342;2024-02-15T03:25:19;16.20;73.10
19281;DHT22;9774;52.034;5.342;2024-02-15T03:27:49;16.20;73.10
19281;DHT22;9774;52.034;5.342;2024-02-15T03:30:17;16.20;73.10
19281;DHT22;9774;52.034;5.342;2024-02-15T03:32:46;16.20;73.10
19281;DHT22;9774;52.034;5.342;2024-02-15T03:35:15;16.20;73.10
19281;DHT22;9774;52.034;5.342;2024-02-15T03:37:42;16.20;73.10
19281;DHT22;9774;52.034;5.342;2024-02-15T03:40:10;16.20;73.10
19281;DHT22;9774;52.034;5.342;2024-02-15T03:42:37;16.20;73.10
19281;DHT22;9774;52.034;5.342;2024-02-15T03:45:05;16.20;73.10
19281;DHT22;9774;52.034;5.342;2024-02-15T03:47:34;16.20;73.10
19281;DHT22;9774;52.034;5.342;2024-02-15T03:50:03;16.20;73.00
19281;DHT22;9774;52.034;5.342;2024-02-15T03:52:31;16.20;73.10
19281;DHT22;9774;52.034;5.342;2024-02-15T03:54:59;16.20;73.00
19281;DHT22;9774;52.034;5.342;2024-02-15T03:57:27;16.20;73.00
19281;DHT22;9774;52.034;5.342;2024-02-15T03:59:55;16.20;73.00
19281;DHT22;9774;52.034;5.342;2024-02-15T04:02:25;16.20;73.10
19281;DHT22;9774;52.034;5.342;2024-02-15T04:04:53;16.10;73.00
19281;DHT22;9774;52.034;5.342;2024-02-15T04:07:23;16.10;73.10
19281;DHT22;9774;52.034;5.342;2024-02-15T04:09:52;16.20;73.10
19281;DHT22;9774;52.034;5.342;2024-02-15T04:12:19;16.10;73.10
19281;DHT22;9774;52.034;5.342;2024-02-15T04:14:47;16.20;73.10
19281;DHT22;9774;52.034;5.342;2024-02-15T04:17:14;16.20;73.20
19281;DHT22;9774;52.034;5.342;2024-02-15T04:19:43;16.20;73.20
19281;DHT22;9774;52.034;5.342;2024-02-15T04:22:11;16.20;73.20
19281;DHT22;9774;52.034;5.342;2024-02-15T04:24:43;16.20;73.20
19281;DHT22;9774;52.034;5.342;2024-02-15T04:27:11;16.20;73.20
19281;DHT22;9774;52.034;5.342;2024-02-15T04:29:39;16.20;73.20
19281;DHT22;9774;52.034;5.342;2024-02-15T04:32:07;16.20;73.20
19281;DHT22;9774;52.034;5.342;2024-02-15T04:34:35;16.20;73.20
19281;DHT22;9774;52.034;5.342;2024-02-15T04:37:03;16.20;73.20
19281;DHT22;9774;52.034;5.342;2024-02-15T04:39:33;16.20;73.20
19281;DHT22;9774;52.034;5.342;2024-02-15T04:42:03;16.20;73.20
19281;DHT22;9774;52.034;5.342;2024-02-15T04:44:32;16.20;73.20
19281;DHT22;9774;52.034;5.342;2024-02-15T04:47:01;16.20;73.20
19281;DHT22;9774;52.034;5.342;2024-02-15T04:49:29;16.30;73.30
19281;DHT22;9774;52.034;5.342;2024-02-15T04:51:56;16.20;73.20
19281;DHT22;9774;52.034;5.342;2024-02-15T04:54:24;16.20;73.90
19281;DHT22;9774;52.034;5.342;2024-02-15T04:56:51;16.20;73.20
19281;DHT22;9774;52.034;5.342;2024-02-15T04:59:21;16.20;73.20
19281;DHT22;9774;52.034;5.342;2024-02-15T05:01:51;16.20;73.20
19281;DHT22;9774;52.034;5.342;2024-02-15T05:04:18;16.20;73.20
19281;DHT22;9774;52.034;5.342;2024-02-15T05:06:45;16.20;73.20
19281;DHT22;9774;52.034;5.342;2024-02-15T05:09:12;16.30;73.30
19281;DHT22;9774;52.034;5.342;2024-02-15T05:11:40;16.30;73.30
19281;DHT22;9774;52.034;5.342;2024-02-15T05:14:11;16.30;73.30
19281;DHT22;9774;52.034;5.342;2024-02-15T05:16:42;16.30;73.30
19281;DHT22;9774;52.034;5.342;2024-02-15T05:19:09;16.30;73.30
19281;DHT22;9774;52.034;5.342;2024-02-15T05:21:38;16.30;73.30
19281;DHT22;9774;52.034;5.342;2024-02-15T05:24:06;16.30;73.40
19281;DHT22;9774;52.034;5.342;2024-02-15T05:26:33;16.30;73.40
19281;DHT22;9774;52.034;5.342;2024-02-15T05:29:01;16.30;73.40
19281;DHT22;9774;52.034;5.342;2024-02-15T05:31:30;16.20;73.40
19281;DHT22;9774;52.034;5.342;2024-02-15T05:33:58;16.30;73.50
19281;DHT22;9774;52.034;5.342;2024-02-15T05:36:26;16.30;73.50
19281;DHT22;9774;52.034;5.342;2024-02-15T05:38:53;16.30;73.60
19281;DHT22;9774;52.034;5.342;2024-02-15T05:41:21;16.20;73.50
19281;DHT22;9774;52.034;5.342;2024-02-15T05:43:48;16.30;73.50
19281;DHT22;9774;52.034;5.342;2024-02-15T05:46:15;16.30;73.50
19281;DHT22;9774;52.034;5.342;2024-02-15T05:48:42;16.30;73.60
19281;DHT22;9774;52.034;5.342;2024-02-15T05:51:11;16.30;73.60
19281;DHT22;9774;52.034;5.342;2024-02-15T05:53:38;16.20;73.50
19281;DHT22;9774;52.034;5.342;2024-02-15T05:56:08;16.30;73.60
19281;DHT22;9774;52.034;5.342;2024-02-15T05:58:36;16.20;73.60
19281;DHT22;9774;52.034;5.342;2024-02-15T06:01:03;16.20;73.60
19281;DHT22;9774;52.034;5.342;2024-02-15T06:03:33;16.20;73.60
19281;DHT22;9774;52.034;5.342;2024-02-15T06:06:04;16.30;73.70
19281;DHT22;9774;52.034;5.342;2024-02-15T06:08:34;16.30;73.70
19281;DHT22;9774;52.034;5.342;2024-02-15T06:11:02;16.30;73.70
19281;DHT22;9774;52.034;5.342;2024-02-15T06:13:31;16.30;73.70
19281;DHT22;9774;52.034;5.342;2024-02-15T06:15:58;16.30;73.70
19281;DHT22;9774;52.034;5.342;2024-02-15T06:18:28;16.30;73.70
19281;DHT22;9774;52.034;5.342;2024-02-15T06:20:59;16.30;73.70
19281;DHT22;9774;52.034;5.342;2024-02-15T06:23:26;16.30;73.60
19281;DHT22;9774;52.034;5.342;2024-02-15T06:25:56;16.30;73.60
19281;DHT22;9774;52.034;5.342;2024-02-15T06:28:24;16.30;73.70
19281;DHT22;9774;52.034;5.342;2024-02-15T06:31:09;16.30;73.60
19281;DHT22;9774;52.034;5.342;2024-02-15T06:33:55;16.30;73.60
19281;DHT22;9774;52.034;5.342;2024-02-15T06:36:40;16.30;73.60
19281;DHT22;9774;52.034;5.342;2024-02-15T06:39:30;16.30;73.60
19281;DHT22;9774;52.034;5.342;2024-02-15T06:42:09;16.30;73.60
19281;DHT22;9774;52.034;5.342;2024-02-15T06:44:40;16.30;73.60
19281;DHT22;9774;52.034;5.342;2024-02-15T06:47:07;16.30;73.60
19281;DHT22;9774;52.034;5.342;2024-02-15T06:49:36;16.30;73.60
19281;DHT22;9774;52.034;5.342;2024-02-15T06:52:05;16.30;73.60
19281;DHT22;9774;52.034;5.342;2024-02-15T06:54:33;16.30;73.60
19281;DHT22;9774;52.034;5.342;2024-02-15T06:57:04;16.30;73.60
19281;DHT22;9774;52.034;5.342;2024-02-15T06:59:36;16.40;73.70
19281;DHT22;9774;52.034;5.342;2024-02-15T07:02:05;16.40;73.70
19281;DHT22;9774;52.034;5.342;2024-02-15T07:04:33;16.30;73.60
19281;DHT22;9774;52.034;5.342;2024-02-15T07:07:02;16.40;73.70
19281;DHT22;9774;52.034;5.342;2024-02-15T07:09:29;16.40;73.70
19281;DHT22;9774;52.034;5.342;2024-02-15T07:11:57;16.40;74.40
19281;DHT22;9774;52.034;5.342;2024-02-15T07:14:24;16.40;73.70
19281;DHT22;9774;52.034;5.342;2024-02-15T07:16:54;16.40;73.70
19281;DHT22;9774;52.034;5.342;2024-02-15T07:19:23;16.40;73.70
19281;DHT22;9774;52.034;5.342;2024-02-15T07:21:52;16.40;73.60
19281;DHT22;9774;52.034;5.342;2024-02-15T07:24:20;16.40;73.70
19281;DHT22;9774;52.034;5.342;2024-02-15T07:26:47;16.40;73.70
19281;DHT22;9774;52.034;5.342;2024-02-15T07:29:18;16.40;73.70
19281;DHT22;9774;52.034;5.342;2024-02-15T07:31:45;16.40;73.70
19281;DHT22;9774;52.034;5.342;2024-02-15T07:34:14;16.40;73.70
19281;DHT22;9774;52.034;5.342;2024-02-15T07:36:42;16.40;73.70
19281;DHT22;9774;52.034;5.342;2024-02-15T07:39:11;16.40;73.70
19281;DHT22;9774;52.034;5.342;2024-02-15T07:41:48;16.40;73.70
19281;DHT22;9774;52.034;5.342;2024-02-15T07:44:15;16.40;73.70
19281;DHT22;9774;52.034;5.342;2024-02-15T07:46:43;16.40;73.70
19281;DHT22;9774;52.034;5.342;2024-02-15T07:49:10;16.40;73.70
19281;DHT22;9774;52.034;5.342;2024-02-15T07:51:39;16.40;73.70
19281;DHT22;9774;52.034;5.342;2024-02-15T07:54:06;16.40;73.70
19281;DHT22;9774;52.034;5.342;2024-02-15T07:56:33;16.40;73.80
19281;DHT22;9774;52.034;5.342;2024-02-15T07:59:00;16.40;74.50
19281;DHT22;9774;52.034;5.342;2024-02-15T08:01:28;16.40;73.80
19281;DHT22;9774;52.034;5.342;2024-02-15T08:03:56;16.40;73.80
19281;DHT22;9774;52.034;5.342;2024-02-15T08:06:23;16.40;73.80
19281;DHT22;9774;52.034;5.342;2024-02-15T08:08:55;16.40;73.80
19281;DHT22;9774;52.034;5.342;2024-02-15T08:11:22;16.30;73.80
19281;DHT22;9774;52.034;5.342;2024-02-15T08:13:52;16.40;73.90
19281;DHT22;9774;52.034;5.342;2024-02-15T08:16:24;16.30;73.90
19281;DHT22;9774;52.034;5.342;2024-02-15T08:18:53;16.30;73.90
19281;DHT22;9774;52.034;5.342;2024-02-15T08:21:25;16.30;73.90
19281;DHT22;9774;52.034;5.342;2024-02-15T08:23:56;16.40;74.00
19281;DHT22;9774;52.034;5.342;2024-02-15T08:26:24;16.40;74.00
19281;DHT22;9774;52.034;5.342;2024-02-15T08:28:51;16.40;74.00
19281;DHT22;9774;52.034;5.342;2024-02-15T08:31:20;16.40;74.00
19281;DHT22;9774;52.034;5.342;2024-02-15T08:33:47;16.40;74.10
19281;DHT22;9774;52.034;5.342;2024-02-15T08:36:15;16.40;74.10
19281;DHT22;9774;52.034;5.342;2024-02-15T08:38:42;16.40;74.10
19281;DHT22;9774;52.034;5.342;2024-02-15T08:41:12;16.40;74.10
19281;DHT22;9774;52.034;5.342;2024-02-15T08:43:39;16.40;74.20
19281;DHT22;9774;52.034;5.342;2024-02-15T08:46:07;16.40;74.20
19281;DHT22;9774;52.034;5.342;2024-02-15T08:48:35;16.40;74.20
19281;DHT22;9774;52.034;5.342;2024-02-15T08:51:03;16.40;74.30
19281;DHT22;9774;52.034;5.342;2024-02-15T08:53:31;16.40;74.30
19281;DHT22;9774;52.034;5.342;2024-02-15T08:55:59;16.40;74.30
19281;DHT22;9774;52.034;5.342;2024-02-15T08:58:28;16.40;74.30
19281;DHT22;9774;52.034;5.342;2024-02-15T09:00:55;16.50;74.30
19281;DHT22;9774;52.034;5.342;2024-02-15T09:03:23;16.50;74.30
19281;DHT22;9774;52.034;5.342;2024-02-15T09:05:50;16.50;75.00
19281;DHT22;9774;52.034;5.342;2024-02-15T09:08:17;16.50;74.30
19281;DHT22;9774;52.034;5.342;2024-02-15T09:10:46;16.50;74.30
19281;DHT22;9774;52.034;5.342;2024-02-15T09:13:13;16.50;74.20
19281;DHT22;9774;52.034;5.342;2024-02-15T09:15:43;16.50;74.70
19281;DHT22;9774;52.034;5.342;2024-02-15T09:18:12;16.50;74.20
19281;DHT22;9774;52.034;5.342;2024-02-15T09:20:40;16.50;74.20
19281;DHT22;9774;52.034;5.342;2024-02-15T09:23:10;16.60;74.30
19281;DHT22;9774;52.034;5.342;2024-02-15T09:25:38;16.60;74.30
19281;DHT22;9774;52.034;5.342;2024-02-15T09:28:06;16.60;74.30
19281;DHT22;9774;52.034;5.342;2024-02-15T09:30:33;16.60;74.30
19281;DHT22;9774;52.034;5.342;2024-02-15T09:33:02;16.60;74.30
19281;DHT22;9774;52.034;5.342;2024-02-15T09:35:30;16.70;74.40
19281;DHT22;9774;52.034;5.342;2024-02-15T09:38:00;16.70;74.30
19281;DHT22;9774;52.034;5.342;2024-02-15T09:40:27;16.70;74.30
19281;DHT22;9774;52.034;5.342;2024-02-15T09:42:55;16.70;74.30
19281;DHT22;9774;52.034;5.342;2024-02-15T09:45:22;16.70;74.30
19281;DHT22;9774;52.034;5.342;2024-02-15T09:47:50;16.70;74.20
19281;DHT22;9774;52.034;5.342;2024-02-15T09:50:19;16.80;74.20
19281;DHT22;9774;52.034;5.342;2024-02-15T09:52:51;16.80;74.20
19281;DHT22;9774;52.034;5.342;2024-02-15T09:55:20;16.80;74.10
19281;DHT22;9774;52.034;5.342;2024-02-15T09:57:50;16.80;74.10
19281;DHT22;9774;52.034;5.342;2024-02-15T10:00:17;16.80;74.10
19281;DHT22;9774;52.034;5.342;2024-02-15T10:02:48;16.90;74.10
19281;DHT22;9774;52.034;5.342;2024-02-15T10:05:19;16.90;74.10
19281;DHT22;9774;52.034;5.342;2024-02-15T10:07:48;16.90;74.00
19281;DHT22;9774;52.034;5.342;2024-02-15T10:10:17;16.90;74.00
19281;DHT22;9774;52.034;5.342;2024-02-15T10:12:46;16.90;74.10
19281;DHT22;9774;52.034;5.342;2024-02-15T10:15:36;17.00;74.10
19281;DHT22;9774;52.034;5.342;2024-02-15T10:18:04;17.00;74.10
19281;DHT22;9774;52.034;5.342;2024-02-15T10:20:35;17.00;74.10
19281;DHT22;9774;52.034;5.342;2024-02-15T10:23:10;17.10;74.10
19281;DHT22;9774;52.034;5.342;2024-02-15T10:25:38;17.10;74.00
19281;DHT22;9774;52.034;5.342;2024-02-15T10:28:07;17.10;74.00
19281;DHT22;9774;52.034;5.342;2024-02-15T10:30:36;17.10;73.90
19281;DHT22;9774;52.034;5.342;2024-02-15T10:33:05;17.20;73.90
19281;DHT22;9774;52.034;5.342;2024-02-15T10:35:34;17.20;73.90
19281;DHT22;9774;52.034;5.342;2024-02-15T10:38:06;17.20;73.90
19281;DHT22;9774;52.034;5.342;2024-02-15T10:40:35;17.20;73.80
19281;DHT22;9774;52.034;5.342;2024-02-15T10:43:03;17.30;73.90
19281;DHT22;9774;52.034;5.342;2024-02-15T10:45:32;17.30;73.90
19281;DHT22;9774;52.034;5.342;2024-02-15T10:48:00;17.30;73.80
19281;DHT22;9774;52.034;5.342;2024-02-15T10:50:27;17.40;73.90
19281;DHT22;9774;52.034;5.342;2024-02-15T10:52:57;17.30;73.70
19281;DHT22;9774;52.034;5.342;2024-02-15T10:55:33;17.40;73.80
19281;DHT22;9774;52.034;5.342;2024-02-15T10:58:05;17.40;73.70
19281;DHT22;9774;52.034;5.342;2024-02-15T11:00:33;17.40;73.80
19281;DHT22;9774;52.034;5.342;2024-02-15T11:03:04;17.50;73.80
19281;DHT22;9774;52.034;5.342;2024-02-15T11:05:35;17.50;73.70
19281;DHT22;9774;52.034;5.342;2024-02-15T11:08:06;17.50;73.70
19281;DHT22;9774;52.034;5.342;2024-02-15T11:10:35;17.50;73.70
19281;DHT22;9774;52.034;5.342;2024-02-15T11:13:03;17.60;73.70
19281;DHT22;9774;52.034;5.342;2024-02-15T11:15:44;17.60;74.30
19281;DHT22;9774;52.034;5.342;2024-02-15T11:18:44;17.60;73.50
19281;DHT22;9774;52.034;5.342;2024-02-15T11:21:15;17.60;73.50
19281;DHT22;9774;52.034;5.342;2024-02-15T11:23:44;17.70;73.60
19281;DHT22;9774;52.034;5.342;2024-02-15T11:26:44;17.70;73.60
19281;DHT22;9774;52.034;5.342;2024-02-15T11:29:50;17.70;73.60
19281;DHT22;9774;52.034;5.342;2024-02-15T11:32:36;17.70;73.50
19281;DHT22;9774;52.034;5.342;2024-02-15T11:35:06;17.80;73.50
19281;DHT22;9774;52.034;5.342;2024-02-15T11:37:51;17.80;73.50
19281;DHT22;9774;52.034;5.342;2024-02-15T11:40:26;17.80;73.50
19281;DHT22;9774;52.034;5.342;2024-02-15T11:42:55;17.90;73.50
19281;DHT22;9774;52.034;5.342;2024-02-15T11:45:25;17.80;73.40
19281;DHT22;9774;52.034;5.342;2024-02-15T11:47:58;17.90;73.30
19281;DHT22;9774;52.034;5.342;2024-02-15T11:50:27;17.90;73.40
19281;DHT22;9774;52.034;5.342;2024-02-15T11:53:03;17.90;73.40
19281;DHT22;9774;52.034;5.342;2024-02-15T11:55:36;17.90;73.30
19281;DHT22;9774;52.034;5.342;2024-02-15T11:58:05;18.00;73.50
19281;DHT22;9774;52.034;5.342;2024-02-15T12:00:44;18.00;73.50
19281;DHT22;9774;52.034;5.342;2024-02-15T12:03:28;18.10;73.60
19281;DHT22;9774;52.034;5.342;2024-02-15T12:06:17;18.10;73.60
19281;DHT22;9774;52.034;5.342;2024-02-15T12:09:17;18.20;73.60
19281;DHT22;9774;52.034;5.342;2024-02-15T12:12:04;18.20;73.50
19281;DHT22;9774;52.034;5.342;2024-02-15T12:14:49;18.20;73.50
19281;DHT22;9774;52.034;5.342;2024-02-15T12:17:33;18.30;73.50
19281;DHT22;9774;52.034;5.342;2024-02-15T12:20:18;18.30;73.50
19281;DHT22;9774;52.034;5.342;2024-02-15T12:22:51;18.40;73.50
19281;DHT22;9774;52.034;5.342;2024-02-15T12:25:18;18.40;73.50
19281;DHT22;9774;52.034;5.342;2024-02-15T12:27:53;18.40;73.60
19281;DHT22;9774;52.034;5.342;2024-02-15T12:30:21;18.50;73.60
19281;DHT22;9774;52.034;5.342;2024-02-15T12:32:51;18.50;73.60
19281;DHT22;9774;52.034;5.342;2024-02-15T12:35:20;18.60;73.60
19281;DHT22;9774;52.034;5.342;2024-02-15T12:38:01;18.60;73.70
19281;DHT22;9774;52.034;5.342;2024-02-15T12:40:32;18.70;73.50
19281;DHT22;9774;52.034;5.342;2024-02-15T12:43:01;18.80;73.60
19281;DHT22;9774;52.034;5.342;2024-02-15T12:45:31;18.80;73.50
19281;DHT22;9774;52.034;5.342;2024-02-15T12:48:03;18.90;73.50
19281;DHT22;9774;52.034;5.342;2024-02-15T12:50:32;19.00;73.50
19281;DHT22;9774;52.034;5.342;2024-02-15T12:53:01;19.00;73.50
19281;DHT22;9774;52.034;5.342;2024-02-15T12:55:29;19.10;73.40
19281;DHT22;9774;52.034;5.342;2024-02-15T12:58:01;19.20;73.20
19281;DHT22;9774;52.034;5.342;2024-02-15T13:00:34;19.30;73.20
19281;DHT22;9774;52.034;5.342;2024-02-15T13:03:06;19.30;73.20
19281;DHT22;9774;52.034;5.342;2024-02-15T13:05:35;19.40;73.10
19281;DHT22;9774;52.034;5.342;2024-02-15T13:08:04;19.50;72.90
19281;DHT22;9774;52.034;5.342;2024-02-15T13:10:36;19.50;72.70
19281;DHT22;9774;52.034;5.342;2024-02-15T13:13:05;19.60;72.60
19281;DHT22;9774;52.034;5.342;2024-02-15T13:15:35;19.70;72.90
19281;DHT22;9774;52.034;5.342;2024-02-15T13:18:04;19.80;73.00
19281;DHT22;9774;52.034;5.342;2024-02-15T13:20:31;19.90;73.00
19281;DHT22;9774;52.034;5.342;2024-02-15T13:23:00;20.00;73.00
19281;DHT22;9774;52.034;5.342;2024-02-15T13:25:33;20.20;72.70
19281;DHT22;9774;52.034;5.342;2024-02-15T13:28:02;20.30;72.40
19281;DHT22;9774;52.034;5.342;2024-02-15T13:30:31;20.40;72.10
19281;DHT22;9774;52.034;5.342;2024-02-15T13:33:00;20.50;71.80
19281;DHT22;9774;52.034;5.342;2024-02-15T13:35:27;20.70;71.60
19281;DHT22;9774;52.034;5.342;2024-02-15T13:37:55;20.80;71.80
19281;DHT22;9774;52.034;5.342;2024-02-15T13:40:24;20.90;71.50
19281;DHT22;9774;52.034;5.342;2024-02-15T13:42:55;21.10;71.80
19281;DHT22;9774;52.034;5.342;2024-02-15T13:45:27;21.20;71.50
19281;DHT22;9774;52.034;5.342;2024-02-15T13:47:59;21.40;71.40
19281;DHT22;9774;52.034;5.342;2024-02-15T13:50:28;21.60;71.50
19281;DHT22;9774;52.034;5.342;2024-02-15T13:52:56;21.90;71.70
19281;DHT22;9774;52.034;5.342;2024-02-15T13:55:24;22.10;71.60
19281;DHT22;9774;52.034;5.342;2024-02-15T13:57:52;22.40;71.50
19281;DHT22;9774;52.034;5.342;2024-02-15T14:00:21;22.60;71.30
19281;DHT22;9774;52.034;5.342;2024-02-15T14:02:49;22.90;70.60
19281;DHT22;9774;52.034;5.342;2024-02-15T14:05:18;23.20;69.40
19281;DHT22;9774;52.034;5.342;2024-02-15T14:07:47;23.30;69.00
19281;DHT22;9774;52.034;5.342;2024-02-15T14:10:16;23.40;68.00
19281;DHT22;9774;52.034;5.342;2024-02-15T14:12:47;23.60;67.90
19281;DHT22;9774;52.034;5.342;2024-02-15T14:15:15;23.70;67.70
19281;DHT22;9774;52.034;5.342;2024-02-15T14:17:43;23.80;67.30
19281;DHT22;9774;52.034;5.342;2024-02-15T14:20:11;23.90;67.20
19281;DHT22;9774;52.034;5.342;2024-02-15T14:22:41;24.00;66.90
19281;DHT22;9774;52.034;5.342;2024-02-15T14:25:10;24.10;66.50
19281;DHT22;9774;52.034;5.342;2024-02-15T14:27:39;24.20;66.10
19281;DHT22;9774;52.034;5.342;2024-02-15T14:30:07;24.20;65.20
19281;DHT22;9774;52.034;5.342;2024-02-15T14:32:52;24.20;64.40
19281;DHT22;9774;52.034;5.342;2024-02-15T14:35:33;24.20;63.90
19281;DHT22;9774;52.034;5.342;2024-02-15T14:38:04;24.10;63.10
19281;DHT22;9774;52.034;5.342;2024-02-15T14:40:34;23.90;62.80
19281;DHT22;9774;52.034;5.342;2024-02-15T14:43:02;23.70;62.80
19281;DHT22;9774;52.034;5.342;2024-02-15T14:45:30;23.60;62.70
19281;DHT22;9774;52.034;5.342;2024-02-15T14:47:58;23.40;62.70
19281;DHT22;9774;52.034;5.342;2024-02-15T14:50:25;23.30;62.60
19281;DHT22;9774;52.034;5.342;2024-02-15T14:52:53;23.10;62.60
19281;DHT22;9774;52.034;5.342;2024-02-15T14:55:21;22.90;62.40
19281;DHT22;9774;52.034;5.342;2024-02-15T14:57:49;22.70;62.40
19281;DHT22;9774;52.034;5.342;2024-02-15T15:00:16;22.60;62.50
19281;DHT22;9774;52.034;5.342;2024-02-15T15:02:45;22.40;62.60
19281;DHT22;9774;52.034;5.342;2024-02-15T15:05:13;22.20;62.60
19281;DHT22;9774;52.034;5.342;2024-02-15T15:07:58;22.10;62.70
19281;DHT22;9774;52.034;5.342;2024-02-15T15:10:47;21.90;62.80
19281;DHT22;9774;52.034;5.342;2024-02-15T15:13:46;21.80;62.90
19281;DHT22;9774;52.034;5.342;2024-02-15T15:16:13;21.60;63.20
19281;DHT22;9774;52.034;5.342;2024-02-15T15:18:43;21.50;64.00
19281;DHT22;9774;52.034;5.342;2024-02-15T15:21:12;21.30;63.40
19281;DHT22;9774;52.034;5.342;2024-02-15T15:23:39;21.20;63.60
19281;DHT22;9774;52.034;5.342;2024-02-15T15:26:10;21.10;63.70
19281;DHT22;9774;52.034;5.342;2024-02-15T15:28:37;21.00;63.80
19281;DHT22;9774;52.034;5.342;2024-02-15T15:31:04;20.90;63.90
19281;DHT22;9774;52.034;5.342;2024-02-15T15:33:32;20.80;64.00
19281;DHT22;9774;52.034;5.342;2024-02-15T15:36:00;20.70;64.20
19281;DHT22;9774;52.034;5.342;2024-02-15T15:38:28;20.70;64.30
19281;DHT22;9774;52.034;5.342;2024-02-15T15:40:56;20.60;64.40
19281;DHT22;9774;52.034;5.342;2024-02-15T15:43:25;20.60;64.50
19281;DHT22;9774;52.034;5.342;2024-02-15T15:45:53;20.50;64.40
19281;DHT22;9774;52.034;5.342;2024-02-15T15:48:20;20.50;64.50
19281;DHT22;9774;52.034;5.342;2024-02-15T15:50:48;20.40;64.50
19281;DHT22;9774;52.034;5.342;2024-02-15T15:53:15;20.30;64.50
19281;DHT22;9774;52.034;5.342;2024-02-15T15:55:43;20.20;64.50
19281;DHT22;9774;52.034;5.342;2024-02-15T15:58:12;20.20;64.60
19281;DHT22;9774;52.034;5.342;2024-02-15T16:00:41;20.10;64.70